sensor_id;sensor_type;location;lat;lon;timestamp;pressure;altitude;pressure_sealevel;temperature;humidity
60059;BME280;45932;50.658;3.022;2022-09-09T00:00:22;100147.31;;;18.99;64.46
60059;BME280;45932;50.658;3.022;2022-09-09T00:02:59;100211.38;;;19.44;64.23
60059;BME280;45932;50.658;3.022;2022-09-09T00:08:19;100217.06;;;19.57;64.69
60059;BME280;45932;50.658;3.022;2022-09-09T00:10:51;100179.19;;;19.25;64.30
60059;BME280;45932;50.658;3.022;2022-09-09T00:13:24;100166.03;;;19.20;64.35
60059;BME280;45932;50.658;3.022;2022-09-09T00:16:04;100235.28;;;19.67;64.23
60059;BME280;45932;50.658;3.022;2022-09-09T00:22:13;100165.34;;;19.35;64.63
60059;BME280;45932;50.658;3.022;2022-09-09T00:24:51;100228.16;;;19.68;64.48
60059;BME280;45932;50.658;3.022;2022-09-09T00:27:38;100231.69;;;19.68;64.43
60059;BME280;45932;50.658;3.022;2022-09-09T00:30:27;100195.16;;;19.47;64.07
60059;BME280;45932;50.658;3.022;2022-09-09T00:32:59;100161.94;;;19.32;64.30
60059;BME280;45932;50.658;3.022;2022-09-09T00:35:33;100212.69;;;19.54;64.51
60059;BME280;45932;50.658;3.022;2022-09-09T00:41:03;100224.13;;;19.58;64.15
60059;BME280;45932;50.658;3.022;2022-09-09T00:43:32;100188.13;;;19.24;63.87
60059;BME280;45932;50.658;3.022;2022-09-09T00:52:08;100216.25;;;19.55;64.43
60059;BME280;45932;50.658;3.022;2022-09-09T00:57:30;100156.31;;;19.17;64.13
60059;BME280;45932;50.658;3.022;2022-09-09T01:00:21;100194.03;;;19.52;64.27
60059;BME280;45932;50.658;3.022;2022-09-09T01:11:23;100140.28;;;19.17;64.30
60059;BME280;45932;50.658;3.022;2022-09-09T01:13:56;100080.81;;;18.92;64.21
60059;BME280;45932;50.658;3.022;2022-09-09T01:16:26;100119.03;;;19.14;64.29
60059;BME280;45932;50.658;3.022;2022-09-09T01:18:54;100188.69;;;19.52;63.69
60059;BME280;45932;50.658;3.022;2022-09-09T01:21:47;100114.75;;;19.10;64.32
60059;BME280;45932;50.658;3.022;2022-09-09T01:26:54;100171.91;;;19.49;64.34
60059;BME280;45932;50.658;3.022;2022-09-09T01:29:23;100061.00;;;18.75;64.59
60059;BME280;45932;50.658;3.022;2022-09-09T01:32:37;100116.56;;;19.10;64.62
60059;BME280;45932;50.658;3.022;2022-09-09T01:34:49;100100.13;;;18.98;64.25
60059;BME280;45932;50.658;3.022;2022-09-09T01:37:15;100083.59;;;18.88;64.44
60059;BME280;45932;50.658;3.022;2022-09-09T01:39:43;100163.22;;;19.44;64.64
60059;BME280;45932;50.658;3.022;2022-09-09T01:42:12;100164.06;;;19.44;64.38
60059;BME280;45932;50.658;3.022;2022-09-09T01:44:39;100159.63;;;19.45;64.83
60059;BME280;45932;50.658;3.022;2022-09-09T01:47:04;100152.44;;;19.45;64.61
60059;BME280;45932;50.658;3.022;2022-09-09T01:49:30;100065.66;;;18.91;64.78
60059;BME280;45932;50.658;3.022;2022-09-09T01:51:57;100071.75;;;18.96;64.91
60059;BME280;45932;50.658;3.022;2022-09-09T01:54:26;100104.13;;;19.09;64.68
60059;BME280;45932;50.658;3.022;2022-09-09T02:02:36;100145.16;;;19.49;64.86
60059;BME280;45932;50.658;3.022;2022-09-09T02:07:39;100067.78;;;19.04;64.76
60059;BME280;45932;50.658;3.022;2022-09-09T02:10:17;100058.88;;;19.04;65.11
60059;BME280;45932;50.658;3.022;2022-09-09T02:12:48;100102.00;;;19.17;64.42
60059;BME280;45932;50.658;3.022;2022-09-09T02:15:29;100130.97;;;19.47;64.88
60059;BME280;45932;50.658;3.022;2022-09-09T02:17:58;100133.72;;;19.45;64.73
60059;BME280;45932;50.658;3.022;2022-09-09T02:20:27;100083.47;;;19.12;64.55
60059;BME280;45932;50.658;3.022;2022-09-09T02:22:57;100055.81;;;18.93;64.61
60059;BME280;45932;50.658;3.022;2022-09-09T02:25:26;100049.47;;;18.95;64.78
60059;BME280;45932;50.658;3.022;2022-09-09T02:27:53;100107.00;;;19.25;64.89
60059;BME280;45932;50.658;3.022;2022-09-09T02:30:19;100085.34;;;19.10;64.48
60059;BME280;45932;50.658;3.022;2022-09-09T02:32:47;100119.50;;;19.45;64.77
60059;BME280;45932;50.658;3.022;2022-09-09T02:35:17;100064.47;;;18.99;64.57
60059;BME280;45932;50.658;3.022;2022-09-09T02:37:45;100137.34;;;19.44;64.61
60059;BME280;45932;50.658;3.022;2022-09-09T02:40:14;100050.47;;;18.93;65.09
60059;BME280;45932;50.658;3.022;2022-09-09T02:42:42;100133.88;;;19.42;64.94
60059;BME280;45932;50.658;3.022;2022-09-09T02:45:09;100054.19;;;18.88;64.93
60059;BME280;45932;50.658;3.022;2022-09-09T02:47:39;100139.22;;;19.42;64.81
60059;BME280;45932;50.658;3.022;2022-09-09T02:50:22;100077.28;;;18.91;64.25
60059;BME280;45932;50.658;3.022;2022-09-09T02:53:06;100093.03;;;19.18;64.69
60059;BME280;45932;50.658;3.022;2022-09-09T02:55:52;100139.06;;;19.45;64.79
60059;BME280;45932;50.658;3.022;2022-09-09T02:58:19;100109.66;;;19.25;64.77
60059;BME280;45932;50.658;3.022;2022-09-09T03:00:47;100077.66;;;19.02;64.63
60059;BME280;45932;50.658;3.022;2022-09-09T03:03:13;100031.47;;;18.78;64.46
60059;BME280;45932;50.658;3.022;2022-09-09T03:05:38;100077.41;;;19.09;64.80
60059;BME280;45932;50.658;3.022;2022-09-09T03:08:04;100075.06;;;19.01;64.48
60059;BME280;45932;50.658;3.022;2022-09-09T03:10:31;100054.19;;;18.88;64.37
60059;BME280;45932;50.658;3.022;2022-09-09T03:12:57;100039.09;;;18.87;64.74
60059;BME280;45932;50.658;3.022;2022-09-09T03:15:22;100071.28;;;19.07;64.78
60059;BME280;45932;50.658;3.022;2022-09-09T03:17:47;100033.22;;;18.79;64.63
60059;BME280;45932;50.658;3.022;2022-09-09T03:20:13;99970.63;;;18.44;64.43
60059;BME280;45932;50.658;3.022;2022-09-09T03:22:38;100013.69;;;18.77;64.74
60059;BME280;45932;50.658;3.022;2022-09-09T03:25:04;100074.13;;;19.02;64.47
60059;BME280;45932;50.658;3.022;2022-09-09T03:27:31;100108.13;;;19.40;64.90
60059;BME280;45932;50.658;3.022;2022-09-09T03:29:56;99974.63;;;18.54;64.53
60059;BME280;45932;50.658;3.022;2022-09-09T03:32:22;99950.66;;;18.52;64.62
60059;BME280;45932;50.658;3.022;2022-09-09T03:34:48;100039.66;;;18.96;64.65
60059;BME280;45932;50.658;3.022;2022-09-09T03:37:15;100015.31;;;18.81;64.59
60059;BME280;45932;50.658;3.022;2022-09-09T03:39:41;100027.59;;;18.85;64.42
60059;BME280;45932;50.658;3.022;2022-09-09T03:42:06;100023.06;;;18.87;64.83
60059;BME280;45932;50.658;3.022;2022-09-09T03:44:31;100027.22;;;18.95;64.96
60059;BME280;45932;50.658;3.022;2022-09-09T03:46:57;100028.41;;;18.87;64.78
60059;BME280;45932;50.658;3.022;2022-09-09T03:49:25;100030.16;;;18.88;64.51
60059;BME280;45932;50.658;3.022;2022-09-09T03:51:52;100112.16;;;19.29;64.12
60059;BME280;45932;50.658;3.022;2022-09-09T03:54:17;100072.94;;;19.09;64.61
60059;BME280;45932;50.658;3.022;2022-09-09T03:56:43;100063.44;;;19.02;64.39
60059;BME280;45932;50.658;3.022;2022-09-09T03:59:08;100014.84;;;18.71;64.26
60059;BME280;45932;50.658;3.022;2022-09-09T04:01:36;99988.59;;;18.61;64.41
60059;BME280;45932;50.658;3.022;2022-09-09T04:04:01;100056.88;;;18.88;64.29
60059;BME280;45932;50.658;3.022;2022-09-09T04:06:27;100019.44;;;18.68;64.35
60059;BME280;45932;50.658;3.022;2022-09-09T04:08:53;100082.28;;;19.19;64.33
60059;BME280;45932;50.658;3.022;2022-09-09T04:11:18;100074.66;;;19.10;64.46
60059;BME280;45932;50.658;3.022;2022-09-09T04:13:45;99950.19;;;18.43;64.24
60059;BME280;45932;50.658;3.022;2022-09-09T04:16:11;100105.50;;;19.38;64.70
60059;BME280;45932;50.658;3.022;2022-09-09T04:18:38;99991.66;;;18.72;64.45
60059;BME280;45932;50.658;3.022;2022-09-09T04:21:04;100073.03;;;19.27;64.62
60059;BME280;45932;50.658;3.022;2022-09-09T04:23:31;99974.31;;;18.62;64.25
60059;BME280;45932;50.658;3.022;2022-09-09T04:25:57;100020.22;;;18.91;64.31
60059;BME280;45932;50.658;3.022;2022-09-09T04:28:25;100100.16;;;19.38;64.11
60059;BME280;45932;50.658;3.022;2022-09-09T04:30:51;100091.22;;;19.39;64.34
60059;BME280;45932;50.658;3.022;2022-09-09T04:33:17;100026.31;;;18.96;64.38
60059;BME280;45932;50.658;3.022;2022-09-09T04:35:48;99953.13;;;18.57;64.56
60059;BME280;45932;50.658;3.022;2022-09-09T04:38:14;100004.28;;;18.89;64.36
60059;BME280;45932;50.658;3.022;2022-09-09T04:40:45;99972.28;;;18.67;64.08
60059;BME280;45932;50.658;3.022;2022-09-09T04:43:12;100032.88;;;19.08;64.43
60059;BME280;45932;50.658;3.022;2022-09-09T04:45:37;99992.13;;;18.82;64.44
60059;BME280;45932;50.658;3.022;2022-09-09T04:48:04;100022.00;;;18.92;63.99
60059;BME280;45932;50.658;3.022;2022-09-09T04:50:29;99982.59;;;18.76;64.30
60059;BME280;45932;50.658;3.022;2022-09-09T04:52:55;99955.72;;;18.59;64.16
60059;BME280;45932;50.658;3.022;2022-09-09T04:55:20;99982.31;;;18.82;64.77
60059;BME280;45932;50.658;3.022;2022-09-09T04:57:45;99951.31;;;18.58;64.09
60059;BME280;45932;50.658;3.022;2022-09-09T05:00:11;99998.00;;;18.90;64.09
60059;BME280;45932;50.658;3.022;2022-09-09T05:02:38;100002.50;;;18.90;64.73
60059;BME280;45932;50.658;3.022;2022-09-09T05:05:04;100042.31;;;19.16;64.73
60059;BME280;45932;50.658;3.022;2022-09-09T05:07:30;100028.41;;;19.29;65.74
60059;BME280;45932;50.658;3.022;2022-09-09T05:09:56;99962.88;;;18.79;65.43
60059;BME280;45932;50.658;3.022;2022-09-09T05:12:22;99955.81;;;18.78;65.56
60059;BME280;45932;50.658;3.022;2022-09-09T05:14:48;99927.09;;;18.62;65.45
60059;BME280;45932;50.658;3.022;2022-09-09T05:17:13;99932.97;;;18.70;65.43
60059;BME280;45932;50.658;3.022;2022-09-09T05:19:40;99929.56;;;18.67;65.89
60059;BME280;45932;50.658;3.022;2022-09-09T05:22:05;99919.97;;;18.63;65.64
60059;BME280;45932;50.658;3.022;2022-09-09T05:24:30;99895.38;;;18.54;65.82
60059;BME280;45932;50.658;3.022;2022-09-09T05:26:58;99930.41;;;18.67;65.61
60059;BME280;45932;50.658;3.022;2022-09-09T05:29:25;99967.72;;;18.91;65.74
60059;BME280;45932;50.658;3.022;2022-09-09T05:31:51;99937.38;;;18.71;66.24
60059;BME280;45932;50.658;3.022;2022-09-09T05:34:17;99915.53;;;18.62;66.22
60059;BME280;45932;50.658;3.022;2022-09-09T05:36:42;99914.72;;;18.60;65.92
60059;BME280;45932;50.658;3.022;2022-09-09T05:39:07;99949.66;;;18.76;65.53
60059;BME280;45932;50.658;3.022;2022-09-09T05:41:32;99988.88;;;18.96;65.71
60059;BME280;45932;50.658;3.022;2022-09-09T05:43:58;99920.34;;;18.53;65.67
60059;BME280;45932;50.658;3.022;2022-09-09T05:46:26;99944.50;;;18.71;65.67
60059;BME280;45932;50.658;3.022;2022-09-09T05:48:53;99933.16;;;18.66;65.75
60059;BME280;45932;50.658;3.022;2022-09-09T05:51:22;99974.31;;;18.82;65.71
60059;BME280;45932;50.658;3.022;2022-09-09T05:53:50;99979.50;;;18.85;65.57
60059;BME280;45932;50.658;3.022;2022-09-09T05:56:21;99908.81;;;18.53;65.85
60059;BME280;45932;50.658;3.022;2022-09-09T05:58:47;99968.81;;;18.85;66.18
60059;BME280;45932;50.658;3.022;2022-09-09T06:01:16;99932.50;;;18.61;66.36
60059;BME280;45932;50.658;3.022;2022-09-09T06:03:44;99890.88;;;18.36;66.24
60059;BME280;45932;50.658;3.022;2022-09-09T06:06:15;99981.00;;;18.93;66.21
60059;BME280;45932;50.658;3.022;2022-09-09T06:08:44;99933.03;;;18.48;66.12
60059;BME280;45932;50.658;3.022;2022-09-09T06:11:15;100010.91;;;19.01;66.24
60059;BME280;45932;50.658;3.022;2022-09-09T06:13:41;99906.72;;;18.39;66.45
60059;BME280;45932;50.658;3.022;2022-09-09T06:16:12;99940.16;;;18.68;66.59
60059;BME280;45932;50.658;3.022;2022-09-09T06:18:39;99893.56;;;18.34;66.63
60059;BME280;45932;50.658;3.022;2022-09-09T06:21:06;99981.81;;;18.95;67.13
60059;BME280;45932;50.658;3.022;2022-09-09T06:23:33;99893.84;;;18.88;69.55
60059;BME280;45932;50.658;3.022;2022-09-09T06:28:33;99862.81;;;18.26;67.90
60059;BME280;45932;50.658;3.022;2022-09-09T06:31:04;99907.06;;;18.52;67.99
60059;BME280;45932;50.658;3.022;2022-09-09T06:33:31;99944.84;;;18.84;68.14
60059;BME280;45932;50.658;3.022;2022-09-09T06:36:00;99951.03;;;18.84;67.96
60059;BME280;45932;50.658;3.022;2022-09-09T06:38:25;99849.63;;;18.22;68.29
60059;BME280;45932;50.658;3.022;2022-09-09T06:40:52;99816.63;;;18.23;68.96
60059;BME280;45932;50.658;3.022;2022-09-09T06:43:19;99860.69;;;18.34;68.38
60059;BME280;45932;50.658;3.022;2022-09-09T06:48:20;99930.00;;;18.77;68.82
60059;BME280;45932;50.658;3.022;2022-09-09T06:50:46;99849.66;;;18.21;68.72
60059;BME280;45932;50.658;3.022;2022-09-09T06:53:12;99800.47;;;17.85;68.95
60059;BME280;45932;50.658;3.022;2022-09-09T06:55:37;99830.53;;;18.11;69.12
60059;BME280;45932;50.658;3.022;2022-09-09T06:58:08;99924.13;;;18.68;69.02
60059;BME280;45932;50.658;3.022;2022-09-09T07:00:33;99796.38;;;17.99;69.20
60059;BME280;45932;50.658;3.022;2022-09-09T07:02:59;99851.56;;;18.39;69.65
60059;BME280;45932;50.658;3.022;2022-09-09T07:05:24;99786.88;;;17.91;69.42
60059;BME280;45932;50.658;3.022;2022-09-09T07:07:51;99816.63;;;18.23;69.37
60059;BME280;45932;50.658;3.022;2022-09-09T07:10:16;99834.25;;;18.28;69.18
60059;BME280;45932;50.658;3.022;2022-09-09T07:12:42;99770.41;;;17.82;69.10
60059;BME280;45932;50.658;3.022;2022-09-09T07:15:08;99780.59;;;17.92;69.14
60059;BME280;45932;50.658;3.022;2022-09-09T07:17:33;99790.56;;;18.10;69.11
60059;BME280;45932;50.658;3.022;2022-09-09T07:19:59;99851.59;;;18.38;69.09
60059;BME280;45932;50.658;3.022;2022-09-09T07:22:24;99807.97;;;18.18;69.07
60059;BME280;45932;50.658;3.022;2022-09-09T07:24:50;99823.97;;;18.18;68.84
60059;BME280;45932;50.658;3.022;2022-09-09T07:27:15;99776.50;;;18.06;69.37
60059;BME280;45932;50.658;3.022;2022-09-09T07:29:40;99800.16;;;18.14;69.09
60059;BME280;45932;50.658;3.022;2022-09-09T07:32:06;99877.63;;;18.53;69.01
60059;BME280;45932;50.658;3.022;2022-09-09T07:34:31;99802.97;;;18.11;69.50
60059;BME280;45932;50.658;3.022;2022-09-09T07:36:56;99742.66;;;17.86;69.47
60059;BME280;45932;50.658;3.022;2022-09-09T07:39:22;99742.44;;;17.70;69.29
60059;BME280;45932;50.658;3.022;2022-09-09T07:41:49;99786.16;;;18.08;69.72
60059;BME280;45932;50.658;3.022;2022-09-09T07:44:19;99898.59;;;18.82;69.72
60059;BME280;45932;50.658;3.022;2022-09-09T07:46:48;99911.97;;;18.82;69.30
60059;BME280;45932;50.658;3.022;2022-09-09T07:49:14;99907.56;;;18.81;69.48
60059;BME280;45932;50.658;3.022;2022-09-09T07:51:43;99914.72;;;18.80;69.55
60059;BME280;45932;50.658;3.022;2022-09-09T07:54:11;99914.63;;;18.82;69.34
60059;BME280;45932;50.658;3.022;2022-09-09T07:56:37;99914.72;;;18.80;69.38
60059;BME280;45932;50.658;3.022;2022-09-09T07:59:04;99913.84;;;18.80;69.68
60059;BME280;45932;50.658;3.022;2022-09-09T08:01:35;99877.34;;;18.60;69.47
60059;BME280;45932;50.658;3.022;2022-09-09T08:04:13;99912.84;;;18.82;69.38
60059;BME280;45932;50.658;3.022;2022-09-09T08:06:41;99936.91;;;18.82;69.53
60059;BME280;45932;50.658;3.022;2022-09-09T08:09:09;99930.75;;;18.80;69.91
60059;BME280;45932;50.658;3.022;2022-09-09T08:11:38;99935.06;;;18.83;69.91
60059;BME280;45932;50.658;3.022;2022-09-09T08:14:04;99839.69;;;18.26;70.12
60059;BME280;45932;50.658;3.022;2022-09-09T08:16:32;99843.94;;;18.30;69.71
60059;BME280;45932;50.658;3.022;2022-09-09T08:18:58;99927.66;;;18.90;69.73
60059;BME280;45932;50.658;3.022;2022-09-09T08:21:29;99930.28;;;18.91;69.98
60059;BME280;45932;50.658;3.022;2022-09-09T08:23:56;99960.53;;;18.92;69.84
60059;BME280;45932;50.658;3.022;2022-09-09T08:26:25;99950.75;;;18.91;70.06
60059;BME280;45932;50.658;3.022;2022-09-09T08:28:53;99882.22;;;18.50;70.03
60059;BME280;45932;50.658;3.022;2022-09-09T08:31:22;99949.81;;;18.93;70.00
60059;BME280;45932;50.658;3.022;2022-09-09T08:33:48;99953.34;;;18.94;69.92
60059;BME280;45932;50.658;3.022;2022-09-09T08:36:16;99939.81;;;18.97;70.10
60059;BME280;45932;50.658;3.022;2022-09-09T08:38:42;99848.66;;;18.44;69.81
60059;BME280;45932;50.658;3.022;2022-09-09T08:41:31;99907.63;;;18.79;70.03
60059;BME280;45932;50.658;3.022;2022-09-09T08:46:49;99925.94;;;18.88;70.02
60059;BME280;45932;50.658;3.022;2022-09-09T08:49:47;99907.72;;;18.78;69.83
60059;BME280;45932;50.658;3.022;2022-09-09T08:57:49;99911.97;;;18.82;70.09
60059;BME280;45932;50.658;3.022;2022-09-09T09:00:20;99963.81;;;18.98;69.69
60059;BME280;45932;50.658;3.022;2022-09-09T09:03:00;99913.44;;;18.68;69.60
60059;BME280;45932;50.658;3.022;2022-09-09T09:05:48;99903.03;;;18.62;69.60
60059;BME280;45932;50.658;3.022;2022-09-09T09:11:23;99926.34;;;18.79;69.55
60059;BME280;45932;50.658;3.022;2022-09-09T09:14:03;99875.88;;;18.52;69.54
60059;BME280;45932;50.658;3.022;2022-09-09T09:16:34;100002.72;;;19.25;69.57
60059;BME280;45932;50.658;3.022;2022-09-09T09:19:12;99899.56;;;18.60;69.65
60059;BME280;45932;50.658;3.022;2022-09-09T09:21:44;100004.34;;;19.29;69.44
60059;BME280;45932;50.658;3.022;2022-09-09T09:26:48;99932.69;;;18.77;69.91
60059;BME280;45932;50.658;3.022;2022-09-09T09:29:23;100004.09;;;19.14;69.57
60059;BME280;45932;50.658;3.022;2022-09-09T09:31:55;100020.38;;;19.29;69.60
60059;BME280;45932;50.658;3.022;2022-09-09T09:34:22;99964.97;;;18.93;69.43
60059;BME280;45932;50.658;3.022;2022-09-09T09:36:54;100014.09;;;19.30;69.47
60059;BME280;45932;50.658;3.022;2022-09-09T09:39:29;100031.00;;;19.30;69.19
60059;BME280;45932;50.658;3.022;2022-09-09T09:41:54;99953.34;;;18.94;69.52
60059;BME280;45932;50.658;3.022;2022-09-09T09:44:30;100013.94;;;19.33;69.74
60059;BME280;45932;50.658;3.022;2022-09-09T09:47:24;100016.47;;;19.36;69.77
60059;BME280;45932;50.658;3.022;2022-09-09T09:49:55;99963.09;;;18.95;69.42
60059;BME280;45932;50.658;3.022;2022-09-09T09:52:27;99850.28;;;18.28;69.84
60059;BME280;45932;50.658;3.022;2022-09-09T09:54:54;100034.13;;;19.40;69.38
60059;BME280;45932;50.658;3.022;2022-09-09T09:57:29;99941.97;;;18.88;69.58
60059;BME280;45932;50.658;3.022;2022-09-09T10:00:15;100035.69;;;19.44;69.47
60059;BME280;45932;50.658;3.022;2022-09-09T10:02:43;99947.19;;;18.92;69.77
60059;BME280;45932;50.658;3.022;2022-09-09T10:05:18;100039.09;;;19.48;69.45
60059;BME280;45932;50.658;3.022;2022-09-09T10:07:45;100043.06;;;19.39;69.32
60059;BME280;45932;50.658;3.022;2022-09-09T10:10:23;99910.94;;;18.65;69.94
60059;BME280;45932;50.658;3.022;2022-09-09T10:26:45;100066.97;;;19.63;69.43
60059;BME280;45932;50.658;3.022;2022-09-09T10:37:32;100074.28;;;19.59;69.66
60059;BME280;45932;50.658;3.022;2022-09-09T10:40:48;100015.13;;;19.07;69.33
60059;BME280;45932;50.658;3.022;2022-09-09T10:43:38;100070.69;;;19.59;69.60
60059;BME280;45932;50.658;3.022;2022-09-09T10:59:50;99994.19;;;19.16;69.71
60059;BME280;45932;50.658;3.022;2022-09-09T11:02:27;100080.28;;;19.64;69.68
60059;BME280;45932;50.658;3.022;2022-09-09T11:05:09;99997.38;;;19.25;69.77
60059;BME280;45932;50.658;3.022;2022-09-09T11:07:42;100043.97;;;19.78;70.88
60059;BME280;45932;50.658;3.022;2022-09-09T11:10:33;99961.38;;;19.32;70.79
60059;BME280;45932;50.658;3.022;2022-09-09T11:13:04;100006.06;;;19.49;70.10
60059;BME280;45932;50.658;3.022;2022-09-09T11:15:45;100045.88;;;19.95;70.70
60059;BME280;45932;50.658;3.022;2022-09-09T11:18:15;99954.81;;;19.20;70.01
60059;BME280;45932;50.658;3.022;2022-09-09T11:20:44;99933.22;;;19.06;69.49
60059;BME280;45932;50.658;3.022;2022-09-09T11:23:21;99992.91;;;19.44;69.92
60059;BME280;45932;50.658;3.022;2022-09-09T11:26:00;99949.59;;;19.17;69.53
60059;BME280;45932;50.658;3.022;2022-09-09T11:28:56;100058.88;;;20.03;70.12
60059;BME280;45932;50.658;3.022;2022-09-09T11:42:35;99935.03;;;19.43;70.08
60059;BME280;45932;50.658;3.022;2022-09-09T11:45:30;99951.56;;;19.51;69.83
60059;BME280;45932;50.658;3.022;2022-09-09T11:47:58;100076.50;;;20.26;69.56
60059;BME280;45932;50.658;3.022;2022-09-09T11:52:50;100051.78;;;20.21;69.92
60059;BME280;45932;50.658;3.022;2022-09-09T11:55:31;99966.28;;;19.79;69.75
60059;BME280;45932;50.658;3.022;2022-09-09T12:00:37;100072.44;;;20.36;69.40
60059;BME280;45932;50.658;3.022;2022-09-09T12:03:04;99986.66;;;19.83;69.59
60059;BME280;45932;50.658;3.022;2022-09-09T12:05:55;100081.97;;;20.42;69.42
60059;BME280;45932;50.658;3.022;2022-09-09T12:08:27;99986.81;;;19.98;70.15
60059;BME280;45932;50.658;3.022;2022-09-09T12:10:56;100036.63;;;20.20;69.53
60059;BME280;45932;50.658;3.022;2022-09-09T12:13:24;100015.53;;;20.13;69.60
60059;BME280;45932;50.658;3.022;2022-09-09T12:15:59;100076.72;;;20.58;69.56
60059;BME280;45932;50.658;3.022;2022-09-09T12:18:35;99990.78;;;20.08;69.32
60059;BME280;45932;50.658;3.022;2022-09-09T12:23:35;99984.44;;;20.28;70.08
60059;BME280;45932;50.658;3.022;2022-09-09T12:29:40;100064.47;;;20.89;70.23
60059;BME280;45932;50.658;3.022;2022-09-09T12:32:22;99921.66;;;20.17;70.02
60059;BME280;45932;50.658;3.022;2022-09-09T12:34:53;100065.72;;;20.99;69.90
60059;BME280;45932;50.658;3.022;2022-09-09T12:37:32;100060.22;;;21.02;69.90
60059;BME280;45932;50.658;3.022;2022-09-09T12:40:00;99952.38;;;20.44;69.64
60059;BME280;45932;50.658;3.022;2022-09-09T12:42:27;99952.38;;;20.44;69.46
60059;BME280;45932;50.658;3.022;2022-09-09T12:45:00;99923.69;;;20.46;70.22
60059;BME280;45932;50.658;3.022;2022-09-09T12:47:42;99949.69;;;20.62;69.88
60059;BME280;45932;50.658;3.022;2022-09-09T12:50:25;100028.69;;;20.90;68.79
60059;BME280;45932;50.658;3.022;2022-09-09T12:52:58;100006.22;;;20.75;68.81
60059;BME280;45932;50.658;3.022;2022-09-09T12:55:28;100013.94;;;20.81;68.55
60059;BME280;45932;50.658;3.022;2022-09-09T12:57:55;99997.22;;;20.58;68.20
60059;BME280;45932;50.658;3.022;2022-09-09T13:00:23;100005.03;;;20.63;67.80
60059;BME280;45932;50.658;3.022;2022-09-09T13:03:13;99998.88;;;20.61;68.40
60059;BME280;45932;50.658;3.022;2022-09-09T13:05:41;100041.38;;;20.86;68.04
60059;BME280;45932;50.658;3.022;2022-09-09T13:08:09;100022.38;;;20.73;67.69
60059;BME280;45932;50.658;3.022;2022-09-09T13:10:50;100051.31;;;20.84;67.57
60059;BME280;45932;50.658;3.022;2022-09-09T13:13:23;100025.50;;;20.64;67.80
60059;BME280;45932;50.658;3.022;2022-09-09T13:15:59;100119.66;;;21.28;67.88
60059;BME280;45932;50.658;3.022;2022-09-09T13:18:31;100006.91;;;20.61;68.73
60059;BME280;45932;50.658;3.022;2022-09-09T13:20:58;100094.53;;;21.13;68.22
60059;BME280;45932;50.658;3.022;2022-09-09T13:23:28;100091.56;;;21.18;68.83
60059;BME280;45932;50.658;3.022;2022-09-09T13:26:05;100040.13;;;20.93;68.58
60059;BME280;45932;50.658;3.022;2022-09-09T13:28:51;100000.94;;;20.73;68.75
60059;BME280;45932;50.658;3.022;2022-09-09T13:31:33;100081.88;;;21.15;68.40
60059;BME280;45932;50.658;3.022;2022-09-09T13:34:11;100065.25;;;21.08;68.46
60059;BME280;45932;50.658;3.022;2022-09-09T13:36:38;100031.59;;;20.85;68.85
60059;BME280;45932;50.658;3.022;2022-09-09T13:39:04;100021.59;;;20.89;68.90
60059;BME280;45932;50.658;3.022;2022-09-09T13:41:34;100105.22;;;21.31;68.52
60059;BME280;45932;50.658;3.022;2022-09-09T13:44:02;100022.53;;;20.70;68.42
60059;BME280;45932;50.658;3.022;2022-09-09T13:49:23;100113.13;;;21.34;68.35
60059;BME280;45932;50.658;3.022;2022-09-09T13:51:50;100000.09;;;20.73;68.38
60059;BME280;45932;50.658;3.022;2022-09-09T13:54:18;99960.88;;;20.53;69.06
60059;BME280;45932;50.658;3.022;2022-09-09T13:56:45;99995.56;;;20.73;68.95
60059;BME280;45932;50.658;3.022;2022-09-09T13:59:16;100013.78;;;20.84;68.45
60059;BME280;45932;50.658;3.022;2022-09-09T14:01:41;100022.06;;;20.79;68.54
60059;BME280;45932;50.658;3.022;2022-09-09T14:04:07;100065.06;;;21.11;67.98
60059;BME280;45932;50.658;3.022;2022-09-09T14:06:34;100045.31;;;20.97;67.85
60059;BME280;45932;50.658;3.022;2022-09-09T14:09:02;100001.22;;;20.67;68.10
60059;BME280;45932;50.658;3.022;2022-09-09T14:11:27;100106.34;;;21.26;67.75
60059;BME280;45932;50.658;3.022;2022-09-09T14:16:18;100127.34;;;21.52;67.75
60059;BME280;45932;50.658;3.022;2022-09-09T14:18:45;100144.66;;;21.46;67.13
60059;BME280;45932;50.658;3.022;2022-09-09T14:21:11;100191.75;;;21.52;65.83
60059;BME280;45932;50.658;3.022;2022-09-09T14:23:37;100133.31;;;21.23;65.98
60059;BME280;45932;50.658;3.022;2022-09-09T14:26:03;100109.97;;;21.25;66.64
60059;BME280;45932;50.658;3.022;2022-09-09T14:28:29;100155.66;;;21.24;65.85
60059;BME280;45932;50.658;3.022;2022-09-09T14:30:54;100084.50;;;20.82;65.60
60059;BME280;45932;50.658;3.022;2022-09-09T14:33:20;100152.84;;;21.08;65.12
60059;BME280;45932;50.658;3.022;2022-09-09T14:35:46;100110.69;;;20.94;65.54
60059;BME280;45932;50.658;3.022;2022-09-09T14:38:11;100185.06;;;21.25;64.80
60059;BME280;45932;50.658;3.022;2022-09-09T14:40:38;100115.09;;;20.95;65.33
60059;BME280;45932;50.658;3.022;2022-09-09T14:43:04;100095.44;;;20.94;65.61
60059;BME280;45932;50.658;3.022;2022-09-09T14:45:30;100180.25;;;21.32;65.05
60059;BME280;45932;50.658;3.022;2022-09-09T14:47:56;100187.81;;;21.41;64.84
60059;BME280;45932;50.658;3.022;2022-09-09T14:50:22;100109.66;;;20.97;64.99
60059;BME280;45932;50.658;3.022;2022-09-09T14:52:48;100217.50;;;21.56;64.85
60059;BME280;45932;50.658;3.022;2022-09-09T14:55:14;100307.53;;;21.63;62.62
60059;BME280;45932;50.658;3.022;2022-09-09T14:57:40;100174.81;;;20.99;62.91
60059;BME280;45932;50.658;3.022;2022-09-09T15:00:06;100204.53;;;21.11;63.53
60059;BME280;45932;50.658;3.022;2022-09-09T15:02:33;100312.56;;;21.69;62.87
60059;BME280;45932;50.658;3.022;2022-09-09T15:04:59;100279.25;;;21.73;63.68
60059;BME280;45932;50.658;3.022;2022-09-09T15:07:25;100230.91;;;21.21;62.87
60059;BME280;45932;50.658;3.022;2022-09-09T15:09:52;100272.44;;;21.49;63.79